Ana Sayfa
METAR-TAF:

METAR-TAF

Havaalanları :

Pohnpei, Mikronezya

Enlem: 06-59N, Boylam: 158-12E, yükseklik: 2 m

Güncel hava durumu gözlemi

Rapor saat 02:51 UTC de 1 saat ve 11 dakika önce yapıldı.
Rüzgar kuzeybatıdan 3 kt
Sıcaklık 30°C
Nem 79%
Basınç 1006 hPa
Görüş mesafesi: 24.1 km
1800 ft yükseklikte parçalı bulutlu, Yükselen kümülüs.
13000 ft yükseklikte parçalı çok bulutlu
30000 ft yükseklikte çok bulutlu

METAR: PTPN 230251Z 32003KT 15SM SCT018TCU BKN130 OVC300 30/26 A2972 RMK TCU SE-SW

Saat: 15:02 (04:02 UTC)

Tahmin

Rapor saat 23:32 UTC de 4 saat ve 30 dakika önce yapıldı.
Ayın 23'si saat 00 UTC'den ayın 23'si saat 24 UTC'ye kadar geçerli Tahmin
Rüzgar değişken yönden 6 kt
Görüş mesafesi: 10 km
1800 ft yükseklikte parçalı bulutlu
15000 ft yükseklikte parçalı bulutlu
Civarda sağanaklar

TAF: PTPN 222332Z 2300/2324 VRB06KT P6SM VCSH SCT018 SCT150

4.000'den fazla havaalanı için hava durumu gözlemleri ve tahminleri (METAR ve TAF raporları).

Kullanılabilir istasyonlar harita üzerinde sarı ve kırmızı noktalarla gösterilir.

İstasyonun adını görmek için fareyi noktanın üzerinde gezdirin.

Sonrasında hava gözlem ve tahminlerini görmek için tıklayın.

Haritayı değiştirmek için: yaklaştırmak için siyah artı işaretli yeşil düğmeye ve uzaklaştırmak için de eksi işaretli düğmeye hızla tıklayın; bitişik haritalar için yeşil okları kullanın.


METAR-TAF: